Anderson, Texas
Current Conditions -  °F | °C
As of 1:53 PM on Thursday 29 Jan 2015 (Local Time) from KCLL Reporting Station
Clear Clear  
Wind Chill: 71°   Ceiling: Unl
Heat Index: 71°   Visibility: 10mi
Dew Point: 56°   Wind: 9mph
Humidity: 59%   Direction: 280°W
Pressure: 30.21"   Gusts: NA
Location:  30.49°N, 95.99°W
Report Text: KCLL 291953Z 28008KT 10SM CLR 22/13 A3021 RMK AO2 SLP228 T02170133
Loading
Personal Weather Stations






























Interactive Weather Map New forecast layout! Learn more

10-Day Weather Forecast

Advertisements
Track Severe Weather on mobile